Time;durP1;ratioP1;P1;durP2;ratioP2;P2;SDS_P1;SDS_P2;PMS_P1;PMS_P2;Temp;Humidity;BMP_temperature;BMP_pressure;BME280_temperature;BME280_humidity;BME280_pressure;Samples;Min_cycle;Max_cycle;Signal;HPM_P1;HPM_P2
2021/06/29 00:07:25;;;;;;;7.50;6.60;;;;;;;18.40;88.60;100398.34;20806872;28;20286;-61
2021/06/29 00:17:32;;;;;;;7.13;6.20;;;;;;;18.28;88.24;100395.81;20805847;28;20212;-64
2021/06/29 00:27:33;;;;;;;8.07;6.97;;;;;;;18.31;88.41;100398.22;20797512;28;20598;-61
2021/06/29 00:37:34;;;;;;;6.57;5.70;;;;;;;18.24;88.00;100386.28;20811800;28;20212;-61
2021/06/29 00:47:34;;;;;;;6.03;5.43;;;;;;;18.13;88.37;100397.25;20789052;28;21286;-61
2021/06/29 00:57:36;;;;;;;6.93;6.27;;;;;;;18.02;88.19;100392.00;20810311;28;20240;-65
2021/06/29 01:07:36;;;;;;;7.07;5.87;;;;;;;18.08;88.31;100385.19;20786413;28;20387;-65
2021/06/29 01:17:37;;;;;;;6.10;5.60;;;;;;;17.87;88.45;100377.28;20809494;28;20208;-60
2021/06/29 01:27:55;;;;;;;6.00;5.50;;;;;;;17.85;88.29;100384.66;20792177;28;20221;-61
2021/06/29 01:37:56;;;;;;;6.77;6.17;;;;;;;17.72;89.17;100384.09;20808086;28;20220;-60
2021/06/29 01:47:58;;;;;;;7.27;5.83;;;;;;;17.61;89.17;100377.81;20799215;28;20226;-61
2021/06/29 01:57:59;;;;;;;8.63;5.63;;;;;;;17.53;90.17;100377.66;20793568;28;20247;-61
2021/06/29 02:08:00;;;;;;;6.83;5.60;;;;;;;17.48;90.57;100361.06;20809609;28;20219;-60
2021/06/29 02:18:00;;;;;;;8.27;6.47;;;;;;;17.60;91.39;100353.69;20800657;28;20277;-60
2021/06/29 02:28:01;;;;;;;6.60;6.00;;;;;;;17.47;91.93;100364.75;20820707;28;20557;-61
2021/06/29 02:38:03;;;;;;;5.30;4.90;;;;;;;18.17;93.22;100363.56;20802940;28;20315;-63
2021/06/29 02:48:04;;;;;;;6.37;4.77;;;;;;;19.78;88.41;100363.81;20820807;28;20242;-63
2021/06/29 02:58:04;;;;;;;5.50;4.27;;;;;;;22.03;75.58;100375.97;20803899;28;20220;-63
2021/06/29 03:08:05;;;;;;;4.47;3.80;;;;;;;24.67;64.91;100376.63;20813044;28;20229;-62
2021/06/29 03:18:05;;;;;;;4.03;3.70;;;;;;;27.68;55.77;100373.09;20809672;28;20208;-61
2021/06/29 03:28:06;;;;;;;4.70;3.70;;;;;;;30.29;50.72;100387.28;20803667;28;20229;-61
2021/06/29 03:38:06;;;;;;;5.03;4.40;;;;;;;33.74;44.26;100396.28;20821636;28;20290;-62
2021/06/29 03:48:07;;;;;;;4.95;4.45;;;;;;;36.19;39.25;100409.72;20794185;28;20677;-62
2021/06/29 03:58:08;;;;;;;4.38;3.97;;;;;;;38.32;36.53;100407.94;20813836;28;20216;-63
2021/06/29 04:08:08;;;;;;;5.25;3.92;;;;;;;40.15;33.51;100419.25;20792265;28;20318;-65
2021/06/29 04:18:10;;;;;;;6.22;4.80;;;;;;;41.91;31.28;100418.38;20813451;28;20625;-64
2021/06/29 04:28:10;;;;;;;5.13;4.10;;;;;;;43.10;29.33;100428.94;20820988;28;20247;-64
2021/06/29 04:38:11;;;;;;;5.88;4.78;;;;;;;44.45;27.30;100432.91;20823216;28;20208;-64
2021/06/29 04:48:11;;;;;;;4.80;4.45;;;;;;;45.61;26.32;100423.16;20825601;28;20384;-64
2021/06/29 04:58:12;;;;;;;5.55;4.32;;;;;;;46.28;25.32;100436.78;20863531;28;20296;-64
2021/06/29 05:08:12;;;;;;;4.45;4.05;;;;;;;44.22;26.96;100420.81;20885590;28;20218;-63
2021/06/29 05:18:15;;;;;;;4.88;4.57;;;;;;;36.37;36.56;100393.50;20883606;28;20215;-64
2021/06/29 05:28:19;;;;;;;5.63;5.18;;;;;;;31.50;40.89;100367.25;20849412;28;20235;-65
2021/06/29 05:38:24;;;;;;;6.10;5.60;;;;;;;28.97;45.90;100365.22;20846520;28;20227;-65
2021/06/29 05:48:28;;;;;;;6.47;5.87;;;;;;;27.33;49.98;100355.91;20808015;28;20228;-63
2021/06/29 05:58:28;;;;;;;8.00;6.47;;;;;;;26.66;52.58;100359.38;20824679;28;20216;-65
2021/06/29 06:08:29;;;;;;;5.60;5.10;;;;;;;26.55;54.14;100340.78;20801691;28;20708;-64
2021/06/29 06:18:30;;;;;;;7.97;5.97;;;;;;;26.67;54.66;100349.28;20823335;28;20208;-63
2021/06/29 06:28:32;;;;;;;6.27;5.53;;;;;;;26.80;55.23;100339.25;20803838;28;20224;-62
2021/06/29 06:38:39;;;;;;;5.47;5.03;;;;;;;26.86;56.67;100354.00;20816098;28;20220;-64
2021/06/29 06:48:42;;;;;;;5.03;4.63;;;;;;;26.96;53.00;100345.44;20808120;28;20227;-63
2021/06/29 06:58:45;;;;;;;5.07;4.67;;;;;;;27.30;53.20;100350.81;20806513;28;20213;-65
2021/06/29 07:18:53;;;;;;;5.70;4.30;;;;;;;27.76;51.93;100344.63;20182792;27;25815996;-60
2021/06/29 07:28:54;;;;;;;4.03;3.67;;;;;;;27.97;50.70;100338.94;21070884;28;20240;-60
2021/06/29 07:38:55;;;;;;;4.20;3.33;;;;;;;28.25;50.65;100339.59;21085525;28;20522;-60
2021/06/29 07:48:56;;;;;;;4.40;4.00;;;;;;;28.63;48.45;100336.09;21104955;28;20229;-65
2021/06/29 07:58:56;;;;;;;3.57;3.30;;;;;;;28.87;47.37;100338.16;21072121;28;21058;-65
2021/06/29 08:08:57;;;;;;;3.50;3.30;;;;;;;28.99;47.77;100341.94;21010475;28;20590;-62
2021/06/29 08:18:57;;;;;;;3.33;2.93;;;;;;;29.06;47.77;100350.16;21018655;28;20249;-61
2021/06/29 08:28:58;;;;;;;3.53;3.33;;;;;;;29.22;46.90;100337.81;21016961;28;20256;-62
2021/06/29 08:38:59;;;;;;;3.60;2.73;;;;;;;29.39;46.28;100336.25;21055455;28;20229;-65
2021/06/29 08:48:59;;;;;;;3.20;2.90;;;;;;;29.64;45.10;100325.31;21039536;28;20218;-66
2021/06/29 08:59:00;;;;;;;3.03;2.72;;;;;;;29.79;45.17;100319.50;21056626;28;20503;-66
2021/06/29 09:09:26;;;;;;;2.50;2.30;;;;;;;30.07;42.00;100312.47;21017731;28;20226;-64
2021/06/29 09:19:34;;;;;;;2.47;2.35;;;;;;;30.36;43.80;100318.34;21055528;28;20267;-62
2021/06/29 09:29:42;;;;;;;2.78;2.50;;;;;;;30.48;41.66;100318.44;21035458;28;20275;-61
2021/06/29 09:39:43;;;;;;;2.88;2.67;;;;;;;30.54;39.96;100312.91;21051370;28;20267;-65
2021/06/29 09:49:43;;;;;;;2.80;2.60;;;;;;;30.75;40.87;100295.06;21038093;28;20214;-60
2021/06/29 09:59:44;;;;;;;2.58;2.40;;;;;;;31.04;40.82;100296.16;21043229;28;21106;-65
2021/06/29 10:09:47;;;;;;;2.45;2.25;;;;;;;31.44;40.20;100290.94;21044873;28;20229;-63
2021/06/29 10:19:59;;;;;;;2.45;2.35;;;;;;;31.48;39.70;100281.13;21013419;28;20206;-61
2021/06/29 10:30:00;;;;;;;2.42;2.30;;;;;;;31.64;40.29;100263.09;20937089;28;20325;-61
2021/06/29 10:40:03;;;;;;;2.10;2.00;;;;;;;32.01;39.95;100253.50;20942729;28;20720;-61
2021/06/29 10:50:12;;;;;;;2.30;2.20;;;;;;;32.13;40.03;100256.25;20955943;28;21574;-64
2021/06/29 11:00:18;;;;;;;2.20;2.10;;;;;;;32.34;38.54;100255.69;20945797;28;20267;-66
2021/06/29 11:10:27;;;;;;;2.08;1.98;;;;;;;32.44;38.75;100247.59;20990080;28;21085;-61
2021/06/29 11:20:47;;;;;;;2.20;2.10;;;;;;;32.27;36.14;100235.63;21003807;28;20210;-66
2021/06/29 11:31:03;;;;;;;2.38;2.10;;;;;;;32.10;38.03;100229.13;21008987;28;20222;-61
2021/06/29 11:41:25;;;;;;;2.35;2.15;;;;;;;31.93;34.53;100212.44;20997081;28;20797;-64
2021/06/29 11:52:01;;;;;;;1.90;1.73;;;;;;;32.48;34.64;100193.53;21003859;28;20233;-63
2021/06/29 12:02:07;;;;;;;2.22;2.13;;;;;;;32.49;37.08;100189.69;20680559;28;20279;-65
2021/06/29 12:12:26;;;;;;;2.10;2.00;;;;;;;32.75;33.69;100177.25;20667032;28;20231;-64
2021/06/29 12:22:29;;;;;;;2.25;1.77;;;;;;;32.89;36.32;100173.09;20671597;28;20239;-66
2021/06/29 12:32:30;;;;;;;1.40;1.40;;;;;;;33.07;36.79;100158.22;20767649;28;20310;-63
2021/06/29 12:42:31;;;;;;;1.70;1.60;;;;;;;33.19;36.03;100142.38;21018946;28;20729;-60
2021/06/29 12:52:32;;;;;;;1.83;1.60;;;;;;;32.90;36.54;100135.22;21012067;28;20222;-61
2021/06/29 13:02:33;;;;;;;1.70;1.60;;;;;;;32.81;35.27;100128.44;21023097;28;20222;-65
2021/06/29 13:12:34;;;;;;;2.22;1.80;;;;;;;32.90;36.31;100110.34;21016452;28;20953;-64
2021/06/29 13:22:42;;;;;;;2.08;1.70;;;;;;;32.97;34.95;100101.91;20997291;28;20224;-62
2021/06/29 13:32:46;;;;;;;1.70;1.60;;;;;;;32.72;35.77;100089.31;21038367;28;20229;-61
2021/06/29 13:43:03;;;;;;;2.10;1.90;;;;;;;32.92;32.67;100083.28;21019614;28;20282;-60
2021/06/29 13:53:06;;;;;;;1.60;1.50;;;;;;;33.17;36.46;100069.88;21048235;28;20213;-64
2021/06/29 14:03:18;;;;;;;1.70;1.58;;;;;;;33.44;34.54;100069.22;21037995;28;20214;-60
2021/06/29 14:13:29;;;;;;;1.75;1.65;;;;;;;33.38;35.04;100050.84;21053390;28;20222;-61
2021/06/29 14:23:31;;;;;;;1.65;1.55;;;;;;;33.27;36.11;100033.28;21031275;28;20228;-63
2021/06/29 14:33:32;;;;;;;1.83;1.67;;;;;;;33.17;35.42;100017.34;21053691;28;20210;-65
2021/06/29 14:43:33;;;;;;;1.60;1.50;;;;;;;33.17;36.31;100003.50;21044149;28;20211;-66
2021/06/29 14:53:33;;;;;;;1.70;1.60;;;;;;;33.11;36.05;100004.50;21049795;28;20219;-66
2021/06/29 15:03:34;;;;;;;1.50;1.42;;;;;;;33.15;36.05;99986.31;21052886;28;20214;-66
2021/06/29 15:13:34;;;;;;;1.60;1.50;;;;;;;33.18;35.35;99971.16;21026709;28;20214;-63
2021/06/29 15:23:35;;;;;;;1.88;1.52;;;;;;;33.00;35.30;99958.44;21056798;28;20214;-63
2021/06/29 15:33:36;;;;;;;1.70;1.60;;;;;;;33.02;35.89;99956.25;21039034;28;20226;-62
2021/06/29 15:43:36;;;;;;;1.77;1.67;;;;;;;32.86;35.35;99959.88;21071740;28;20254;-66
2021/06/29 15:53:37;;;;;;;1.70;1.60;;;;;;;32.80;35.00;99966.44;21052124;28;20500;-68
2021/06/29 16:03:37;;;;;;;1.67;1.30;;;;;;;32.86;36.20;99969.00;21045192;28;20218;-68
2021/06/29 16:13:37;;;;;;;1.98;1.50;;;;;;;33.15;35.92;99964.19;21042084;28;20229;-68
2021/06/29 16:23:38;;;;;;;2.55;1.40;;;;;;;33.30;35.72;99951.72;21050864;28;20222;-68
2021/06/29 16:33:39;;;;;;;8.73;1.40;;;;;;;33.44;34.79;99950.25;21064032;28;20233;-69
2021/06/29 16:43:39;;;;;;;2.85;1.58;;;;;;;33.13;34.87;99941.50;21055788;28;20244;-68
2021/06/29 16:53:40;;;;;;;3.22;1.73;;;;;;;34.06;36.44;99947.91;21076742;28;20460;-68
2021/06/29 17:03:41;;;;;;;3.40;1.40;;;;;;;36.20;32.33;99941.78;21014153;28;20234;-69
2021/06/29 17:13:41;;;;;;;3.92;1.60;;;;;;;36.12;31.35;99934.81;20965644;28;20621;-69
2021/06/29 17:23:48;;;;;;;1.75;1.30;;;;;;;36.81;28.79;99941.81;20972430;28;20559;-69
2021/06/29 17:33:49;;;;;;;1.60;1.50;;;;;;;35.80;32.20;99945.31;20973716;28;20233;-69
2021/06/29 17:43:49;;;;;;;1.92;1.50;;;;;;;34.24;33.67;99928.16;20977227;28;20222;-67
2021/06/29 17:53:50;;;;;;;3.65;1.70;;;;;;;33.12;35.56;99920.47;20978350;28;20683;-66
2021/06/29 18:03:52;;;;;;;3.33;1.67;;;;;;;31.87;39.24;99922.78;20954751;28;20207;-67
2021/06/29 18:13:52;;;;;;;2.13;1.88;;;;;;;30.67;43.92;99912.47;20975990;28;20215;-64
2021/06/29 18:23:54;;;;;;;12.18;2.67;;;;;;;29.59;44.59;99910.69;20952792;28;20729;-66
2021/06/29 18:33:58;;;;;;;3.90;2.53;;;;;;;28.27;49.69;99917.53;20973208;28;20687;-65
2021/06/29 18:43:59;;;;;;;2.00;1.90;;;;;;;27.76;45.45;99922.31;20959592;28;20880;-65
2021/06/29 18:54:00;;;;;;;4.33;2.10;;;;;;;27.27;46.36;99940.22;20963473;28;20219;-64
2021/06/29 19:04:01;;;;;;;4.87;2.93;;;;;;;26.68;49.33;99930.22;20966583;28;20222;-64
2021/06/29 19:14:03;;;;;;;2.67;2.47;;;;;;;26.10;48.39;99921.75;20955676;28;20710;-68
2021/06/29 19:24:04;;;;;;;5.83;2.60;;;;;;;25.72;51.11;99934.31;20973276;28;20453;-65
2021/06/29 19:34:07;;;;;;;3.47;2.67;;;;;;;25.24;52.40;99937.00;20950628;28;20309;-67
2021/06/29 19:44:14;;;;;;;3.50;3.00;;;;;;;24.69;58.77;99938.78;20970766;28;20211;-62
2021/06/29 19:54:15;;;;;;;7.63;5.33;;;;;;;24.47;55.28;99942.59;20950576;28;20219;-68
2021/06/29 20:24:25;;;;;;;3.90;3.40;;;;;;;23.62;60.03;99935.22;20596184;27;8227261;-67
2021/06/29 20:34:25;;;;;;;4.70;2.80;;;;;;;23.46;59.31;99929.13;20853952;28;20238;-64
2021/06/29 20:44:26;;;;;;;5.47;4.47;;;;;;;23.26;61.88;99916.09;20862470;28;20218;-64
2021/06/29 21:04:35;;;;;;;7.20;4.57;;;;;;;22.90;65.05;99896.16;20568446;27;8289496;-61
2021/06/29 21:14:36;;;;;;;4.67;3.80;;;;;;;22.83;65.05;99906.09;20822578;28;20214;-61
2021/06/29 21:54:31;;;;;;;6.70;4.10;;;;;;;22.14;71.30;99905.38;20593425;27;8281826;-62
2021/06/29 22:14:40;;;;;;;4.20;3.80;;;;;;;21.62;73.89;99905.22;20583429;27;8290379;-61
2021/06/29 22:24:41;;;;;;;5.57;4.23;;;;;;;21.34;73.16;99903.03;20880109;28;20314;-63
2021/06/29 22:54:44;;;;;;;4.23;3.63;;;;;;;20.97;74.80;99871.13;20574629;27;8286489;-63
2021/06/29 23:24:51;;;;;;;7.07;4.63;;;;;;;20.36;78.82;99848.28;20448299;27;8179824;-59
2021/06/29 23:34:51;;;;;;;8.57;5.30;;;;;;;20.36;79.07;99823.06;20706903;28;20225;-59
